sensor_id;sensor_type;location;lat;lon;timestamp;P1;durP1;ratioP1;P2;durP2;ratioP2
27305;SDS011;14792;50.886;6.468;2023-03-26T00:01:33;27.35;;;4.55;;
27305;SDS011;14792;50.886;6.468;2023-03-26T00:04:35;32.00;;;5.10;;
27305;SDS011;14792;50.886;6.468;2023-03-26T00:07:36;29.42;;;4.20;;
27305;SDS011;14792;50.886;6.468;2023-03-26T00:10:38;31.42;;;4.42;;
27305;SDS011;14792;50.886;6.468;2023-03-26T00:13:40;31.50;;;4.95;;
27305;SDS011;14792;50.886;6.468;2023-03-26T00:16:41;33.92;;;4.65;;
27305;SDS011;14792;50.886;6.468;2023-03-26T00:19:43;31.42;;;4.95;;
27305;SDS011;14792;50.886;6.468;2023-03-26T00:22:44;26.70;;;4.08;;
27305;SDS011;14792;50.886;6.468;2023-03-26T00:25:46;29.75;;;4.78;;
27305;SDS011;14792;50.886;6.468;2023-03-26T00:28:50;24.47;;;4.60;;
27305;SDS011;14792;50.886;6.468;2023-03-26T00:31:52;32.50;;;4.62;;
27305;SDS011;14792;50.886;6.468;2023-03-26T00:34:53;24.72;;;3.95;;
27305;SDS011;14792;50.886;6.468;2023-03-26T00:37:55;24.90;;;3.85;;
27305;SDS011;14792;50.886;6.468;2023-03-26T00:40:58;31.27;;;4.40;;
27305;SDS011;14792;50.886;6.468;2023-03-26T00:44:02;30.20;;;4.85;;
27305;SDS011;14792;50.886;6.468;2023-03-26T00:47:03;35.85;;;5.03;;
27305;SDS011;14792;50.886;6.468;2023-03-26T00:50:05;23.40;;;4.15;;
27305;SDS011;14792;50.886;6.468;2023-03-26T00:53:10;26.33;;;4.30;;
27305;SDS011;14792;50.886;6.468;2023-03-26T00:56:14;29.07;;;4.75;;
27305;SDS011;14792;50.886;6.468;2023-03-26T00:59:15;25.17;;;4.00;;
27305;SDS011;14792;50.886;6.468;2023-03-26T01:02:18;30.72;;;4.55;;
27305;SDS011;14792;50.886;6.468;2023-03-26T01:11:43;28.55;;;4.53;;
27305;SDS011;14792;50.886;6.468;2023-03-26T01:14:45;24.72;;;3.70;;
27305;SDS011;14792;50.886;6.468;2023-03-26T01:17:48;29.12;;;4.67;;
27305;SDS011;14792;50.886;6.468;2023-03-26T01:20:51;20.08;;;4.17;;
27305;SDS011;14792;50.886;6.468;2023-03-26T01:23:56;20.48;;;3.72;;
27305;SDS011;14792;50.886;6.468;2023-03-26T01:27:17;30.55;;;4.05;;
27305;SDS011;14792;50.886;6.468;2023-03-26T01:33:41;27.75;;;3.85;;
27305;SDS011;14792;50.886;6.468;2023-03-26T01:36:55;26.12;;;3.77;;
27305;SDS011;14792;50.886;6.468;2023-03-26T01:39:55;23.80;;;4.55;;
27305;SDS011;14792;50.886;6.468;2023-03-26T01:43:57;26.57;;;4.17;;
27305;SDS011;14792;50.886;6.468;2023-03-26T01:46:18;23.10;;;3.75;;
27305;SDS011;14792;50.886;6.468;2023-03-26T01:52:21;21.50;;;3.65;;
27305;SDS011;14792;50.886;6.468;2023-03-26T01:55:27;21.77;;;4.10;;
27305;SDS011;14792;50.886;6.468;2023-03-26T01:58:33;23.87;;;4.03;;
27305;SDS011;14792;50.886;6.468;2023-03-26T02:01:42;19.25;;;3.42;;
27305;SDS011;14792;50.886;6.468;2023-03-26T02:07:52;30.10;;;3.67;;
27305;SDS011;14792;50.886;6.468;2023-03-26T02:10:54;22.25;;;3.20;;
27305;SDS011;14792;50.886;6.468;2023-03-26T02:13:54;24.75;;;3.42;;
27305;SDS011;14792;50.886;6.468;2023-03-26T02:16:56;19.70;;;2.98;;
27305;SDS011;14792;50.886;6.468;2023-03-26T02:19:58;22.25;;;3.98;;
27305;SDS011;14792;50.886;6.468;2023-03-26T02:22:59;19.48;;;3.27;;
27305;SDS011;14792;50.886;6.468;2023-03-26T02:26:02;16.15;;;3.20;;
27305;SDS011;14792;50.886;6.468;2023-03-26T02:29:02;27.98;;;3.95;;
27305;SDS011;14792;50.886;6.468;2023-03-26T02:32:05;23.05;;;3.35;;
27305;SDS011;14792;50.886;6.468;2023-03-26T02:35:06;14.87;;;2.52;;
27305;SDS011;14792;50.886;6.468;2023-03-26T02:38:07;16.05;;;3.37;;
27305;SDS011;14792;50.886;6.468;2023-03-26T02:41:09;15.32;;;2.75;;
27305;SDS011;14792;50.886;6.468;2023-03-26T02:44:10;17.60;;;3.05;;
27305;SDS011;14792;50.886;6.468;2023-03-26T02:47:12;16.02;;;3.47;;
27305;SDS011;14792;50.886;6.468;2023-03-26T02:50:14;16.40;;;3.47;;
27305;SDS011;14792;50.886;6.468;2023-03-26T02:53:15;14.70;;;3.22;;
27305;SDS011;14792;50.886;6.468;2023-03-26T02:56:17;14.98;;;3.12;;
27305;SDS011;14792;50.886;6.468;2023-03-26T02:59:18;17.48;;;3.33;;
27305;SDS011;14792;50.886;6.468;2023-03-26T03:02:20;18.82;;;3.33;;
27305;SDS011;14792;50.886;6.468;2023-03-26T03:05:22;17.42;;;3.27;;
27305;SDS011;14792;50.886;6.468;2023-03-26T03:12:20;19.50;;;3.50;;
27305;SDS011;14792;50.886;6.468;2023-03-26T03:15:27;16.12;;;2.90;;
27305;SDS011;14792;50.886;6.468;2023-03-26T03:18:29;15.63;;;2.55;;
27305;SDS011;14792;50.886;6.468;2023-03-26T03:21:31;16.80;;;3.47;;
27305;SDS011;14792;50.886;6.468;2023-03-26T03:24:32;18.23;;;3.08;;
27305;SDS011;14792;50.886;6.468;2023-03-26T03:27:34;15.65;;;3.00;;
27305;SDS011;14792;50.886;6.468;2023-03-26T03:30:36;13.03;;;2.75;;
27305;SDS011;14792;50.886;6.468;2023-03-26T03:33:37;13.25;;;3.25;;
27305;SDS011;14792;50.886;6.468;2023-03-26T03:36:39;18.70;;;2.95;;
27305;SDS011;14792;50.886;6.468;2023-03-26T03:39:41;17.40;;;2.70;;
27305;SDS011;14792;50.886;6.468;2023-03-26T03:42:42;13.93;;;2.80;;
27305;SDS011;14792;50.886;6.468;2023-03-26T03:45:44;19.50;;;2.90;;
27305;SDS011;14792;50.886;6.468;2023-03-26T03:48:45;15.68;;;3.02;;
27305;SDS011;14792;50.886;6.468;2023-03-26T03:51:50;14.90;;;2.70;;
27305;SDS011;14792;50.886;6.468;2023-03-26T03:54:51;16.37;;;3.00;;
27305;SDS011;14792;50.886;6.468;2023-03-26T03:57:53;19.82;;;4.05;;
27305;SDS011;14792;50.886;6.468;2023-03-26T04:00:54;58.45;;;19.52;;
27305;SDS011;14792;50.886;6.468;2023-03-26T04:03:56;26.87;;;7.53;;
27305;SDS011;14792;50.886;6.468;2023-03-26T04:06:58;51.20;;;17.87;;
27305;SDS011;14792;50.886;6.468;2023-03-26T04:09:59;22.45;;;5.28;;
27305;SDS011;14792;50.886;6.468;2023-03-26T04:13:01;14.53;;;3.85;;
27305;SDS011;14792;50.886;6.468;2023-03-26T04:16:02;12.68;;;3.50;;
27305;SDS011;14792;50.886;6.468;2023-03-26T04:19:04;16.60;;;3.20;;
27305;SDS011;14792;50.886;6.468;2023-03-26T04:22:05;19.42;;;4.15;;
27305;SDS011;14792;50.886;6.468;2023-03-26T04:25:08;18.55;;;4.92;;
27305;SDS011;14792;50.886;6.468;2023-03-26T04:28:10;16.23;;;4.05;;
27305;SDS011;14792;50.886;6.468;2023-03-26T04:31:12;23.50;;;4.83;;
27305;SDS011;14792;50.886;6.468;2023-03-26T04:34:16;19.35;;;3.50;;
27305;SDS011;14792;50.886;6.468;2023-03-26T04:37:22;23.18;;;3.90;;
27305;SDS011;14792;50.886;6.468;2023-03-26T04:40:23;25.37;;;4.70;;
27305;SDS011;14792;50.886;6.468;2023-03-26T04:43:25;23.05;;;3.87;;
27305;SDS011;14792;50.886;6.468;2023-03-26T04:46:27;20.85;;;3.45;;
27305;SDS011;14792;50.886;6.468;2023-03-26T04:49:28;19.23;;;3.72;;
27305;SDS011;14792;50.886;6.468;2023-03-26T04:52:30;23.73;;;4.28;;
27305;SDS011;14792;50.886;6.468;2023-03-26T04:55:32;20.88;;;4.17;;
27305;SDS011;14792;50.886;6.468;2023-03-26T04:58:33;22.70;;;4.00;;
27305;SDS011;14792;50.886;6.468;2023-03-26T05:01:35;20.23;;;4.37;;
27305;SDS011;14792;50.886;6.468;2023-03-26T05:04:37;24.27;;;4.45;;
27305;SDS011;14792;50.886;6.468;2023-03-26T05:07:41;29.95;;;4.78;;
27305;SDS011;14792;50.886;6.468;2023-03-26T05:10:42;22.50;;;4.33;;
27305;SDS011;14792;50.886;6.468;2023-03-26T05:13:44;25.15;;;4.37;;
27305;SDS011;14792;50.886;6.468;2023-03-26T05:16:46;22.67;;;3.98;;
27305;SDS011;14792;50.886;6.468;2023-03-26T05:19:47;22.27;;;4.20;;
27305;SDS011;14792;50.886;6.468;2023-03-26T05:22:49;25.10;;;4.58;;
27305;SDS011;14792;50.886;6.468;2023-03-26T05:25:50;27.62;;;5.15;;
27305;SDS011;14792;50.886;6.468;2023-03-26T05:28:52;25.65;;;4.25;;
27305;SDS011;14792;50.886;6.468;2023-03-26T05:31:53;18.05;;;4.05;;
27305;SDS011;14792;50.886;6.468;2023-03-26T05:34:56;26.50;;;3.90;;
27305;SDS011;14792;50.886;6.468;2023-03-26T05:37:58;23.65;;;4.42;;
27305;SDS011;14792;50.886;6.468;2023-03-26T05:41:00;25.12;;;4.08;;
27305;SDS011;14792;50.886;6.468;2023-03-26T05:44:01;22.95;;;4.50;;
27305;SDS011;14792;50.886;6.468;2023-03-26T05:47:02;29.72;;;4.50;;
27305;SDS011;14792;50.886;6.468;2023-03-26T05:50:04;29.10;;;4.85;;
27305;SDS011;14792;50.886;6.468;2023-03-26T05:53:06;23.07;;;4.65;;
27305;SDS011;14792;50.886;6.468;2023-03-26T05:56:07;29.20;;;4.80;;
27305;SDS011;14792;50.886;6.468;2023-03-26T05:59:09;19.25;;;5.20;;
27305;SDS011;14792;50.886;6.468;2023-03-26T06:02:10;32.03;;;5.42;;
27305;SDS011;14792;50.886;6.468;2023-03-26T06:05:12;29.00;;;4.75;;
27305;SDS011;14792;50.886;6.468;2023-03-26T06:08:14;27.10;;;4.20;;
27305;SDS011;14792;50.886;6.468;2023-03-26T06:11:16;26.90;;;5.05;;
27305;SDS011;14792;50.886;6.468;2023-03-26T06:14:17;25.68;;;5.12;;
27305;SDS011;14792;50.886;6.468;2023-03-26T06:17:18;14.87;;;3.83;;
27305;SDS011;14792;50.886;6.468;2023-03-26T06:20:20;26.48;;;4.33;;
27305;SDS011;14792;50.886;6.468;2023-03-26T06:23:21;21.80;;;4.70;;
27305;SDS011;14792;50.886;6.468;2023-03-26T06:26:23;17.55;;;4.65;;
27305;SDS011;14792;50.886;6.468;2023-03-26T06:29:25;43.92;;;15.85;;
27305;SDS011;14792;50.886;6.468;2023-03-26T06:32:26;18.15;;;4.20;;
27305;SDS011;14792;50.886;6.468;2023-03-26T06:35:28;16.73;;;4.22;;
27305;SDS011;14792;50.886;6.468;2023-03-26T06:38:29;17.30;;;3.70;;
27305;SDS011;14792;50.886;6.468;2023-03-26T06:41:32;19.57;;;4.12;;
27305;SDS011;14792;50.886;6.468;2023-03-26T06:44:33;17.45;;;3.92;;
27305;SDS011;14792;50.886;6.468;2023-03-26T06:47:34;22.80;;;3.95;;
27305;SDS011;14792;50.886;6.468;2023-03-26T06:50:36;22.40;;;4.42;;
27305;SDS011;14792;50.886;6.468;2023-03-26T06:56:39;18.10;;;3.92;;
27305;SDS011;14792;50.886;6.468;2023-03-26T06:59:41;22.67;;;4.22;;
27305;SDS011;14792;50.886;6.468;2023-03-26T07:02:42;21.27;;;4.40;;
27305;SDS011;14792;50.886;6.468;2023-03-26T07:05:44;25.85;;;4.65;;
27305;SDS011;14792;50.886;6.468;2023-03-26T07:08:45;29.95;;;4.83;;
27305;SDS011;14792;50.886;6.468;2023-03-26T07:11:47;26.48;;;4.75;;
27305;SDS011;14792;50.886;6.468;2023-03-26T07:14:49;27.42;;;4.45;;
27305;SDS011;14792;50.886;6.468;2023-03-26T07:17:50;26.77;;;4.60;;
27305;SDS011;14792;50.886;6.468;2023-03-26T07:20:52;26.82;;;5.33;;
27305;SDS011;14792;50.886;6.468;2023-03-26T07:23:53;26.07;;;4.50;;
27305;SDS011;14792;50.886;6.468;2023-03-26T07:30:47;25.92;;;5.08;;
27305;SDS011;14792;50.886;6.468;2023-03-26T07:34:16;31.27;;;4.47;;
27305;SDS011;14792;50.886;6.468;2023-03-26T07:47:41;21.27;;;7.62;;
27305;SDS011;14792;50.886;6.468;2023-03-26T07:50:43;24.60;;;5.95;;
27305;SDS011;14792;50.886;6.468;2023-03-26T07:53:45;18.17;;;5.22;;
27305;SDS011;14792;50.886;6.468;2023-03-26T07:56:51;23.73;;;4.47;;
27305;SDS011;14792;50.886;6.468;2023-03-26T08:00:09;13.88;;;4.83;;
27305;SDS011;14792;50.886;6.468;2023-03-26T08:06:34;13.72;;;4.47;;
27305;SDS011;14792;50.886;6.468;2023-03-26T08:13:21;17.32;;;4.17;;
27305;SDS011;14792;50.886;6.468;2023-03-26T08:16:22;16.50;;;4.47;;
27305;SDS011;14792;50.886;6.468;2023-03-26T08:22:39;24.32;;;4.87;;
27305;SDS011;14792;50.886;6.468;2023-03-26T08:32:03;25.32;;;5.80;;
27305;SDS011;14792;50.886;6.468;2023-03-26T08:35:05;17.90;;;5.42;;
27305;SDS011;14792;50.886;6.468;2023-03-26T08:38:08;20.25;;;5.90;;
27305;SDS011;14792;50.886;6.468;2023-03-26T08:44:21;21.33;;;5.85;;
27305;SDS011;14792;50.886;6.468;2023-03-26T08:51:09;91.10;;;7.47;;
27305;SDS011;14792;50.886;6.468;2023-03-26T09:04:04;157.05;;;10.95;;
27305;SDS011;14792;50.886;6.468;2023-03-26T09:10:44;15.70;;;6.33;;
27305;SDS011;14792;50.886;6.468;2023-03-26T09:13:53;32.90;;;6.33;;
27305;SDS011;14792;50.886;6.468;2023-03-26T09:37:32;16.62;;;3.90;;
27305;SDS011;14792;50.886;6.468;2023-03-26T09:44:11;11.40;;;2.40;;
27305;SDS011;14792;50.886;6.468;2023-03-26T09:53:55;8.53;;;1.95;;
27305;SDS011;14792;50.886;6.468;2023-03-26T10:14:14;9.43;;;2.85;;
27305;SDS011;14792;50.886;6.468;2023-03-26T10:27:22;9.40;;;2.90;;
27305;SDS011;14792;50.886;6.468;2023-03-26T10:30:30;12.98;;;3.85;;
27305;SDS011;14792;50.886;6.468;2023-03-26T10:33:50;15.75;;;3.58;;
27305;SDS011;14792;50.886;6.468;2023-03-26T10:36:54;9.25;;;2.72;;
27305;SDS011;14792;50.886;6.468;2023-03-26T10:47:17;10.23;;;3.22;;
27305;SDS011;14792;50.886;6.468;2023-03-26T10:50:20;11.80;;;3.30;;
27305;SDS011;14792;50.886;6.468;2023-03-26T10:53:50;14.53;;;3.42;;
27305;SDS011;14792;50.886;6.468;2023-03-26T10:56:50;10.40;;;2.80;;
27305;SDS011;14792;50.886;6.468;2023-03-26T10:59:56;11.57;;;3.05;;
27305;SDS011;14792;50.886;6.468;2023-03-26T11:09:48;13.83;;;5.20;;
27305;SDS011;14792;50.886;6.468;2023-03-26T11:15:58;9.30;;;4.20;;
27305;SDS011;14792;50.886;6.468;2023-03-26T11:18:58;17.60;;;5.15;;
27305;SDS011;14792;50.886;6.468;2023-03-26T11:28:41;12.13;;;4.12;;
27305;SDS011;14792;50.886;6.468;2023-03-26T11:38:16;2.40;;;0.78;;
27305;SDS011;14792;50.886;6.468;2023-03-26T11:41:28;1.62;;;0.98;;
27305;SDS011;14792;50.886;6.468;2023-03-26T11:44:36;2.10;;;1.55;;
27305;SDS011;14792;50.886;6.468;2023-03-26T11:50:55;3.42;;;2.02;;
27305;SDS011;14792;50.886;6.468;2023-03-26T11:53:57;1.90;;;1.12;;
27305;SDS011;14792;50.886;6.468;2023-03-26T11:57:06;3.05;;;1.00;;
27305;SDS011;14792;50.886;6.468;2023-03-26T12:00:06;1.65;;;0.90;;
27305;SDS011;14792;50.886;6.468;2023-03-26T12:03:08;2.40;;;1.22;;
27305;SDS011;14792;50.886;6.468;2023-03-26T12:06:31;2.35;;;1.20;;
27305;SDS011;14792;50.886;6.468;2023-03-26T12:09:17;0.98;;;0.50;;
27305;SDS011;14792;50.886;6.468;2023-03-26T12:12:19;1.65;;;0.80;;
27305;SDS011;14792;50.886;6.468;2023-03-26T12:15:29;1.22;;;0.68;;
27305;SDS011;14792;50.886;6.468;2023-03-26T12:18:31;1.10;;;0.85;;
27305;SDS011;14792;50.886;6.468;2023-03-26T12:21:42;1.50;;;0.98;;
27305;SDS011;14792;50.886;6.468;2023-03-26T12:24:34;4.20;;;1.52;;
27305;SDS011;14792;50.886;6.468;2023-03-26T12:27:35;0.55;;;0.50;;
27305;SDS011;14792;50.886;6.468;2023-03-26T12:30:38;0.80;;;0.30;;
27305;SDS011;14792;50.886;6.468;2023-03-26T12:33:38;1.98;;;0.50;;
27305;SDS011;14792;50.886;6.468;2023-03-26T12:36:43;1.32;;;0.40;;
27305;SDS011;14792;50.886;6.468;2023-03-26T12:39:42;0.57;;;0.28;;
27305;SDS011;14792;50.886;6.468;2023-03-26T12:42:45;0.65;;;0.40;;
27305;SDS011;14792;50.886;6.468;2023-03-26T12:45:45;0.50;;;0.37;;
27305;SDS011;14792;50.886;6.468;2023-03-26T12:48:46;5.15;;;3.92;;
27305;SDS011;14792;50.886;6.468;2023-03-26T12:55:34;0.47;;;0.30;;
27305;SDS011;14792;50.886;6.468;2023-03-26T13:23:07;2.02;;;1.30;;
27305;SDS011;14792;50.886;6.468;2023-03-26T13:35:47;5.17;;;2.98;;
27305;SDS011;14792;50.886;6.468;2023-03-26T13:41:51;3.90;;;3.12;;
27305;SDS011;14792;50.886;6.468;2023-03-26T13:47:52;6.62;;;3.60;;
27305;SDS011;14792;50.886;6.468;2023-03-26T13:51:14;5.50;;;3.95;;
27305;SDS011;14792;50.886;6.468;2023-03-26T13:54:10;9.88;;;3.95;;
27305;SDS011;14792;50.886;6.468;2023-03-26T13:57:34;5.78;;;3.27;;
27305;SDS011;14792;50.886;6.468;2023-03-26T14:07:36;7.65;;;3.40;;
27305;SDS011;14792;50.886;6.468;2023-03-26T14:10:36;5.65;;;3.52;;
27305;SDS011;14792;50.886;6.468;2023-03-26T14:13:47;6.35;;;3.67;;
27305;SDS011;14792;50.886;6.468;2023-03-26T14:16:48;5.55;;;3.12;;
27305;SDS011;14792;50.886;6.468;2023-03-26T14:26:43;5.70;;;2.70;;
27305;SDS011;14792;50.886;6.468;2023-03-26T14:33:04;9.15;;;3.45;;
27305;SDS011;14792;50.886;6.468;2023-03-26T14:39:45;8.23;;;2.60;;
27305;SDS011;14792;50.886;6.468;2023-03-26T14:53:02;5.70;;;2.20;;
27305;SDS011;14792;50.886;6.468;2023-03-26T15:02:45;2.02;;;1.50;;
27305;SDS011;14792;50.886;6.468;2023-03-26T15:19:42;4.28;;;1.50;;
27305;SDS011;14792;50.886;6.468;2023-03-26T15:29:13;3.25;;;1.40;;
27305;SDS011;14792;50.886;6.468;2023-03-26T15:32:25;4.83;;;2.75;;
27305;SDS011;14792;50.886;6.468;2023-03-26T15:35:22;8.70;;;3.60;;
27305;SDS011;14792;50.886;6.468;2023-03-26T15:42:30;8.33;;;5.33;;
27305;SDS011;14792;50.886;6.468;2023-03-26T15:45:51;8.43;;;4.83;;
27305;SDS011;14792;50.886;6.468;2023-03-26T15:48:59;8.48;;;5.10;;
27305;SDS011;14792;50.886;6.468;2023-03-26T15:52:07;8.18;;;4.80;;
27305;SDS011;14792;50.886;6.468;2023-03-26T15:58:20;8.50;;;4.70;;
27305;SDS011;14792;50.886;6.468;2023-03-26T16:11:15;7.15;;;4.55;;
27305;SDS011;14792;50.886;6.468;2023-03-26T16:14:18;8.38;;;5.78;;
27305;SDS011;14792;50.886;6.468;2023-03-26T16:17:19;10.80;;;5.45;;
27305;SDS011;14792;50.886;6.468;2023-03-26T16:33:10;15.23;;;9.78;;
27305;SDS011;14792;50.886;6.468;2023-03-26T16:39:38;13.60;;;8.03;;
27305;SDS011;14792;50.886;6.468;2023-03-26T16:42:40;11.38;;;8.33;;
27305;SDS011;14792;50.886;6.468;2023-03-26T16:45:49;10.18;;;6.83;;
27305;SDS011;14792;50.886;6.468;2023-03-26T16:55:36;10.28;;;7.92;;
27305;SDS011;14792;50.886;6.468;2023-03-26T16:58:47;10.63;;;7.55;;
27305;SDS011;14792;50.886;6.468;2023-03-26T17:02:24;10.00;;;7.15;;
27305;SDS011;14792;50.886;6.468;2023-03-26T17:15:16;6.75;;;4.92;;
27305;SDS011;14792;50.886;6.468;2023-03-26T17:18:38;4.30;;;3.67;;
27305;SDS011;14792;50.886;6.468;2023-03-26T17:21:25;7.20;;;4.35;;
27305;SDS011;14792;50.886;6.468;2023-03-26T17:24:52;6.55;;;4.08;;
27305;SDS011;14792;50.886;6.468;2023-03-26T17:27:58;7.62;;;4.05;;
27305;SDS011;14792;50.886;6.468;2023-03-26T17:31:03;10.23;;;5.47;;
27305;SDS011;14792;50.886;6.468;2023-03-26T17:34:32;9.60;;;6.35;;
27305;SDS011;14792;50.886;6.468;2023-03-26T17:37:39;17.07;;;9.60;;
27305;SDS011;14792;50.886;6.468;2023-03-26T17:40:43;21.75;;;13.25;;
27305;SDS011;14792;50.886;6.468;2023-03-26T17:43:47;36.33;;;16.42;;
27305;SDS011;14792;50.886;6.468;2023-03-26T17:46:48;33.92;;;16.65;;
27305;SDS011;14792;50.886;6.468;2023-03-26T17:49:52;35.83;;;15.55;;
27305;SDS011;14792;50.886;6.468;2023-03-26T17:53:04;38.35;;;13.65;;
27305;SDS011;14792;50.886;6.468;2023-03-26T17:56:10;37.13;;;13.03;;
27305;SDS011;14792;50.886;6.468;2023-03-26T17:59:06;31.27;;;9.80;;
27305;SDS011;14792;50.886;6.468;2023-03-26T18:02:13;39.18;;;10.85;;
27305;SDS011;14792;50.886;6.468;2023-03-26T18:05:15;32.60;;;10.58;;
27305;SDS011;14792;50.886;6.468;2023-03-26T18:08:32;35.25;;;10.88;;
27305;SDS011;14792;50.886;6.468;2023-03-26T18:14:53;33.50;;;12.58;;
27305;SDS011;14792;50.886;6.468;2023-03-26T18:17:54;37.25;;;13.90;;
27305;SDS011;14792;50.886;6.468;2023-03-26T18:20:53;40.67;;;13.30;;
27305;SDS011;14792;50.886;6.468;2023-03-26T18:23:55;41.15;;;16.00;;
27305;SDS011;14792;50.886;6.468;2023-03-26T18:27:12;46.02;;;16.05;;
27305;SDS011;14792;50.886;6.468;2023-03-26T18:30:15;39.75;;;16.45;;
27305;SDS011;14792;50.886;6.468;2023-03-26T18:33:17;33.15;;;11.45;;
27305;SDS011;14792;50.886;6.468;2023-03-26T18:36:20;38.28;;;11.18;;
27305;SDS011;14792;50.886;6.468;2023-03-26T18:39:22;31.15;;;9.28;;
27305;SDS011;14792;50.886;6.468;2023-03-26T18:42:24;28.67;;;7.97;;
27305;SDS011;14792;50.886;6.468;2023-03-26T18:45:26;27.20;;;9.53;;
27305;SDS011;14792;50.886;6.468;2023-03-26T18:48:30;24.75;;;7.90;;
27305;SDS011;14792;50.886;6.468;2023-03-26T18:51:31;31.40;;;6.80;;
27305;SDS011;14792;50.886;6.468;2023-03-26T18:54:33;19.37;;;5.58;;
27305;SDS011;14792;50.886;6.468;2023-03-26T18:57:34;28.52;;;5.55;;
27305;SDS011;14792;50.886;6.468;2023-03-26T19:00:36;18.40;;;4.30;;
27305;SDS011;14792;50.886;6.468;2023-03-26T19:06:39;18.10;;;3.85;;
27305;SDS011;14792;50.886;6.468;2023-03-26T19:09:41;31.77;;;4.47;;
27305;SDS011;14792;50.886;6.468;2023-03-26T19:12:42;15.83;;;4.42;;
27305;SDS011;14792;50.886;6.468;2023-03-26T19:15:44;26.05;;;3.95;;
27305;SDS011;14792;50.886;6.468;2023-03-26T19:18:46;22.22;;;4.22;;
27305;SDS011;14792;50.886;6.468;2023-03-26T19:21:47;19.07;;;3.80;;
27305;SDS011;14792;50.886;6.468;2023-03-26T19:24:49;19.52;;;3.85;;
27305;SDS011;14792;50.886;6.468;2023-03-26T19:27:50;22.60;;;3.92;;
27305;SDS011;14792;50.886;6.468;2023-03-26T19:30:53;19.02;;;3.33;;
27305;SDS011;14792;50.886;6.468;2023-03-26T19:33:57;18.92;;;3.75;;
27305;SDS011;14792;50.886;6.468;2023-03-26T19:37:02;24.25;;;4.05;;
27305;SDS011;14792;50.886;6.468;2023-03-26T19:40:13;18.42;;;3.45;;
27305;SDS011;14792;50.886;6.468;2023-03-26T19:43:13;20.65;;;3.72;;
27305;SDS011;14792;50.886;6.468;2023-03-26T19:46:15;24.82;;;3.17;;
27305;SDS011;14792;50.886;6.468;2023-03-26T19:49:38;17.23;;;3.22;;
27305;SDS011;14792;50.886;6.468;2023-03-26T19:52:35;18.65;;;3.33;;
27305;SDS011;14792;50.886;6.468;2023-03-26T19:55:35;20.43;;;3.83;;
27305;SDS011;14792;50.886;6.468;2023-03-26T19:58:36;17.05;;;3.83;;
27305;SDS011;14792;50.886;6.468;2023-03-26T20:01:38;25.45;;;3.85;;
27305;SDS011;14792;50.886;6.468;2023-03-26T20:04:40;16.67;;;3.33;;
27305;SDS011;14792;50.886;6.468;2023-03-26T20:07:41;16.73;;;3.20;;
27305;SDS011;14792;50.886;6.468;2023-03-26T20:22:30;17.90;;;3.00;;
27305;SDS011;14792;50.886;6.468;2023-03-26T20:29:28;17.23;;;3.35;;
27305;SDS011;14792;50.886;6.468;2023-03-26T20:40:29;9.63;;;2.65;;
27305;SDS011;14792;50.886;6.468;2023-03-26T20:43:30;12.88;;;2.25;;
27305;SDS011;14792;50.886;6.468;2023-03-26T20:58:27;19.17;;;3.35;;
27305;SDS011;14792;50.886;6.468;2023-03-26T21:01:29;18.48;;;2.80;;
27305;SDS011;14792;50.886;6.468;2023-03-26T21:20:29;20.00;;;2.87;;
27305;SDS011;14792;50.886;6.468;2023-03-26T21:35:30;13.38;;;2.95;;
27305;SDS011;14792;50.886;6.468;2023-03-26T21:46:27;22.67;;;2.92;;
27305;SDS011;14792;50.886;6.468;2023-03-26T21:53:28;11.78;;;2.30;;
27305;SDS011;14792;50.886;6.468;2023-03-26T22:04:35;18.45;;;3.05;;
27305;SDS011;14792;50.886;6.468;2023-03-26T22:23:29;16.00;;;2.27;;
27305;SDS011;14792;50.886;6.468;2023-03-26T22:30:27;12.20;;;1.87;;
27305;SDS011;14792;50.886;6.468;2023-03-26T22:33:29;16.90;;;2.27;;
27305;SDS011;14792;50.886;6.468;2023-03-26T22:36:31;21.48;;;2.17;;
27305;SDS011;14792;50.886;6.468;2023-03-26T22:39:32;18.17;;;2.60;;
27305;SDS011;14792;50.886;6.468;2023-03-26T22:50:30;19.20;;;2.62;;
27305;SDS011;14792;50.886;6.468;2023-03-26T22:53:32;14.75;;;2.50;;
27305;SDS011;14792;50.886;6.468;2023-03-26T22:56:33;20.68;;;3.12;;
27305;SDS011;14792;50.886;6.468;2023-03-26T22:59:35;19.75;;;2.70;;
27305;SDS011;14792;50.886;6.468;2023-03-26T23:02:37;9.55;;;1.80;;
27305;SDS011;14792;50.886;6.468;2023-03-26T23:05:38;14.58;;;2.27;;
27305;SDS011;14792;50.886;6.468;2023-03-26T23:08:40;17.85;;;2.37;;
27305;SDS011;14792;50.886;6.468;2023-03-26T23:11:41;14.28;;;2.30;;
27305;SDS011;14792;50.886;6.468;2023-03-26T23:14:43;15.20;;;2.10;;
27305;SDS011;14792;50.886;6.468;2023-03-26T23:17:44;17.02;;;2.62;;
27305;SDS011;14792;50.886;6.468;2023-03-26T23:20:52;24.43;;;2.60;;
27305;SDS011;14792;50.886;6.468;2023-03-26T23:23:53;20.08;;;3.12;;
27305;SDS011;14792;50.886;6.468;2023-03-26T23:26:55;18.35;;;2.60;;
27305;SDS011;14792;50.886;6.468;2023-03-26T23:29:56;25.43;;;3.35;;
27305;SDS011;14792;50.886;6.468;2023-03-26T23:32:58;15.88;;;2.45;;
27305;SDS011;14792;50.886;6.468;2023-03-26T23:36:00;20.70;;;2.62;;
27305;SDS011;14792;50.886;6.468;2023-03-26T23:39:01;17.82;;;2.42;;
27305;SDS011;14792;50.886;6.468;2023-03-26T23:42:03;19.42;;;2.62;;
27305;SDS011;14792;50.886;6.468;2023-03-26T23:45:05;23.85;;;3.10;;
27305;SDS011;14792;50.886;6.468;2023-03-26T23:48:06;24.52;;;2.65;;
27305;SDS011;14792;50.886;6.468;2023-03-26T23:51:08;13.85;;;2.70;;
27305;SDS011;14792;50.886;6.468;2023-03-26T23:54:09;21.90;;;2.15;;
27305;SDS011;14792;50.886;6.468;2023-03-26T23:57:11;15.63;;;2.30;;
